Time;durP1;ratioP1;P1;durP2;ratioP2;P2;SDS_P1;SDS_P2;PMS_P1;PMS_P2;Temp;Humidity;BMP_temperature;BMP_pressure;BME280_temperature;BME280_humidity;BME280_pressure;Samples;Min_cycle;Max_cycle;Signal;HPM_P1;HPM_P2
2023/01/05 00:00:15;;;;;;;1.00;0.93;;;14.50;83.10;;;;;;5089929;28;20539;-67
2023/01/05 00:02:42;;;;;;;0.80;0.80;;;14.50;83.20;;;;;;5092411;28;20453;-67
2023/01/05 00:05:09;;;;;;;0.67;0.67;;;14.60;84.10;;;;;;5073880;28;20534;-67
2023/01/05 00:07:36;;;;;;;0.60;0.60;;;14.60;83.30;;;;;;5071029;28;20461;-67
2023/01/05 00:10:03;;;;;;;0.50;0.50;;;14.60;83.30;;;;;;5072055;28;20479;-66
2023/01/05 00:23:28;;;;;;;1.20;1.10;;;14.30;85.60;;;;;;5075615;28;20433;-67
2023/01/05 00:25:55;;;;;;;0.50;0.50;;;14.40;85.50;;;;;;5081677;28;20539;-67
2023/01/05 00:28:25;;;;;;;0.50;0.50;;;14.40;85.00;;;;;;5071127;28;20483;-67
2023/01/05 00:30:51;;;;;;;0.83;0.83;;;14.40;85.00;;;;;;5071488;28;20514;-67
2023/01/05 00:33:18;;;;;;;0.80;0.80;;;14.40;84.90;;;;;;5073856;28;20439;-66
2023/01/05 00:35:45;;;;;;;0.50;0.50;;;14.50;85.00;;;;;;5083053;28;20725;-66
2023/01/05 00:38:12;;;;;;;0.57;0.57;;;14.50;85.20;;;;;;5071427;28;20939;-66
2023/01/05 00:40:39;;;;;;;0.63;0.63;;;14.40;85.10;;;;;;5075100;28;20442;-66
2023/01/05 00:43:07;;;;;;;0.90;0.67;;;14.40;85.20;;;;;;5090119;28;20850;-66
2023/01/05 00:45:35;;;;;;;0.70;0.70;;;14.40;85.40;;;;;;5077739;28;20449;-67
2023/01/05 00:48:02;;;;;;;0.50;0.50;;;14.40;85.50;;;;;;5071235;28;20448;-67
2023/01/05 00:50:29;;;;;;;0.70;0.70;;;14.20;86.10;;;;;;5070488;28;20540;-67
2023/01/05 00:52:56;;;;;;;2.00;0.77;;;14.30;86.30;;;;;;5071186;28;20462;-65
2023/01/05 00:55:23;;;;;;;0.60;0.60;;;14.20;86.60;;;;;;5089715;28;20442;-66
2023/01/05 00:57:50;;;;;;;0.70;0.70;;;14.30;86.70;;;;;;5103934;28;20445;-67
2023/01/05 01:00:18;;;;;;;0.80;0.80;;;14.30;86.80;;;;;;5109307;28;20448;-65
2023/01/05 01:02:47;;;;;;;0.70;0.60;;;14.20;87.20;;;;;;5055399;28;21004;-67
2023/01/05 01:05:14;;;;;;;0.60;0.60;;;14.20;87.80;;;;;;5075404;28;20481;-67
2023/01/05 01:07:41;;;;;;;0.73;0.73;;;14.20;87.90;;;;;;5078852;28;20459;-67
2023/01/05 01:10:10;;;;;;;0.70;0.70;;;14.10;88.40;;;;;;5071071;28;20483;-67
2023/01/05 01:12:37;;;;;;;0.47;0.47;;;14.10;88.60;;;;;;5074366;28;20462;-67
2023/01/05 01:15:05;;;;;;;1.13;0.87;;;14.20;88.70;;;;;;5079493;28;20447;-67
2023/01/05 01:17:33;;;;;;;0.57;0.57;;;14.20;88.50;;;;;;5094539;28;20788;-67
2023/01/05 01:20:01;;;;;;;1.50;0.47;;;14.30;88.60;;;;;;5095319;28;20497;-67
2023/01/05 01:22:29;;;;;;;0.53;0.53;;;14.30;88.50;;;;;;5093936;28;20452;-66
2023/01/05 01:24:56;;;;;;;0.50;0.50;;;14.30;88.80;;;;;;5092388;28;20640;-67
2023/01/05 01:27:23;;;;;;;0.43;0.43;;;14.30;89.10;;;;;;5084978;28;20446;-67
2023/01/05 01:29:49;;;;;;;1.63;0.60;;;14.30;88.90;;;;;;5094870;28;21072;-67
2023/01/05 01:32:16;;;;;;;0.47;0.47;;;14.30;89.20;;;;;;5079759;28;21046;-67
2023/01/05 01:34:43;;;;;;;0.53;0.53;;;14.30;88.90;;;;;;5074612;28;20447;-67
2023/01/05 01:37:13;;;;;;;1.00;0.90;;;14.30;89.00;;;;;;5075213;28;20451;-66
2023/01/05 01:39:39;;;;;;;0.77;0.50;;;14.30;89.30;;;;;;5073910;28;20451;-66
2023/01/05 01:42:11;;;;;;;0.50;0.40;;;14.30;89.50;;;;;;5074844;28;20482;-67
2023/01/05 01:44:54;;;;;;;1.23;0.40;;;14.30;89.50;;;;;;5075173;28;20518;-66
2023/01/05 01:47:28;;;;;;;0.40;0.40;;;14.40;90.10;;;;;;5073196;28;20443;-67
2023/01/05 01:49:57;;;;;;;0.60;0.60;;;14.50;89.00;;;;;;5074089;28;20498;-67
2023/01/05 01:52:27;;;;;;;0.50;0.50;;;14.40;88.60;;;;;;5073715;28;20439;-66
2023/01/05 01:54:54;;;;;;;0.50;0.50;;;14.50;88.50;;;;;;5074298;28;20542;-67
2023/01/05 01:57:22;;;;;;;0.60;0.60;;;14.60;88.10;;;;;;5090564;28;20460;-66
2023/01/05 01:59:49;;;;;;;1.17;0.70;;;14.60;87.70;;;;;;5114971;28;20482;-67
2023/01/05 02:02:16;;;;;;;0.70;0.70;;;14.50;87.70;;;;;;5089555;28;20452;-66
2023/01/05 02:04:44;;;;;;;0.40;0.40;;;14.50;87.50;;;;;;5074253;28;20451;-67
2023/01/05 02:07:14;;;;;;;0.67;0.60;;;14.50;87.70;;;;;;5074660;28;20938;-67
2023/01/05 02:09:43;;;;;;;0.93;0.87;;;14.50;88.30;;;;;;5074761;28;20474;-67
2023/01/05 02:12:23;;;;;;;0.50;0.50;;;14.40;88.50;;;;;;5074556;28;20447;-66
2023/01/05 02:14:59;;;;;;;0.43;0.43;;;14.40;88.50;;;;;;5074732;28;20637;-67
2023/01/05 02:17:38;;;;;;;0.40;0.40;;;14.60;88.20;;;;;;5083250;28;20470;-67
2023/01/05 02:20:37;;;;;;;0.53;0.53;;;14.50;88.00;;;;;;5094416;28;20456;-68
2023/01/05 02:23:37;;;;;;;0.30;0.30;;;14.50;88.40;;;;;;5089026;28;20531;-67
2023/01/05 02:26:39;;;;;;;0.50;0.50;;;14.50;88.30;;;;;;5083263;28;20443;-67
2023/01/05 02:29:40;;;;;;;0.57;0.57;;;14.50;88.60;;;;;;5094163;28;20438;-65
2023/01/05 02:32:13;;;;;;;0.50;0.50;;;14.60;88.00;;;;;;5094058;28;20458;-67
2023/01/05 02:34:47;;;;;;;0.60;0.47;;;14.60;87.70;;;;;;5084331;28;20939;-67
2023/01/05 02:37:19;;;;;;;0.50;0.50;;;14.60;87.90;;;;;;5087183;28;20533;-66
2023/01/05 02:39:53;;;;;;;0.50;0.50;;;14.70;87.80;;;;;;5092929;28;20446;-67
2023/01/05 02:42:23;;;;;;;0.53;0.53;;;14.60;88.10;;;;;;5093579;28;20501;-67
2023/01/05 02:44:50;;;;;;;0.70;0.70;;;14.60;88.90;;;;;;5081349;28;20435;-67
2023/01/05 02:47:40;;;;;;;0.70;0.70;;;14.50;89.20;;;;;;5078019;28;20456;-66
2023/01/05 02:50:11;;;;;;;0.67;0.43;;;14.50;89.90;;;;;;5059662;28;21041;-67
2023/01/05 02:52:42;;;;;;;0.60;0.50;;;14.50;89.80;;;;;;5072563;28;20436;-67
2023/01/05 02:55:13;;;;;;;1.77;0.60;;;14.50;90.00;;;;;;5086178;28;20431;-67
2023/01/05 02:57:49;;;;;;;0.50;0.50;;;14.50;90.00;;;;;;5085310;28;20443;-66
2023/01/05 03:00:24;;;;;;;0.50;0.50;;;14.50;89.80;;;;;;5073229;28;20804;-66
2023/01/05 03:02:56;;;;;;;0.80;0.50;;;14.50;90.00;;;;;;5073369;28;20431;-66
2023/01/05 03:05:29;;;;;;;0.93;0.60;;;14.50;89.50;;;;;;5085275;28;20435;-66
2023/01/05 03:08:05;;;;;;;2.03;0.60;;;14.60;89.30;;;;;;5073027;28;20547;-66
2023/01/05 03:13:41;;;;;;;1.33;0.70;;;14.60;90.10;;;;;;5091285;28;20484;-67
2023/01/05 03:16:08;;;;;;;0.50;0.50;;;14.60;89.00;;;;;;5078490;28;20898;-67
2023/01/05 03:19:34;;;;;;;0.40;0.40;;;14.60;89.00;;;;;;5088870;28;20803;-66
2023/01/05 03:21:26;;;;;;;1.10;0.60;;;14.60;89.20;;;;;;5091896;28;20454;-67
2023/01/05 03:37:53;;;;;;;0.50;0.50;;;14.60;90.30;;;;;;5071992;28;20888;-66
2023/01/05 03:40:23;;;;;;;0.60;0.60;;;14.40;90.50;;;;;;5072614;28;20450;-67
2023/01/05 03:42:50;;;;;;;0.93;0.50;;;14.40;90.40;;;;;;5082860;28;20478;-66
2023/01/05 03:45:18;;;;;;;0.40;0.40;;;14.40;90.50;;;;;;5076729;28;20967;-67
2023/01/05 03:47:45;;;;;;;0.40;0.40;;;14.50;90.50;;;;;;5071254;28;20947;-67
2023/01/05 03:50:14;;;;;;;0.40;0.40;;;14.50;90.50;;;;;;5071875;28;20499;-67
2023/01/05 03:52:40;;;;;;;0.57;0.57;;;14.50;90.60;;;;;;5071693;28;20447;-66
2023/01/05 03:55:08;;;;;;;0.50;0.50;;;14.40;90.50;;;;;;5083196;28;20455;-67
2023/01/05 03:57:36;;;;;;;1.43;0.50;;;14.30;90.60;;;;;;5092955;28;20454;-67
2023/01/05 04:00:03;;;;;;;0.50;0.50;;;14.30;90.70;;;;;;5112525;28;20441;-67
2023/01/05 04:02:30;;;;;;;0.30;0.30;;;14.30;90.70;;;;;;5112043;28;20455;-67
2023/01/05 04:04:57;;;;;;;0.50;0.40;;;14.20;90.80;;;;;;5100037;28;20454;-67
2023/01/05 04:07:25;;;;;;;0.73;0.60;;;14.30;90.90;;;;;;5090140;28;20443;-66
2023/01/05 04:09:51;;;;;;;0.60;0.60;;;14.30;90.90;;;;;;5092120;28;20450;-67
2023/01/05 04:12:18;;;;;;;0.50;0.50;;;14.30;90.90;;;;;;5091776;28;20968;-66
2023/01/05 04:14:45;;;;;;;0.50;0.50;;;14.30;90.90;;;;;;5083032;28;20959;-66
2023/01/05 04:17:12;;;;;;;0.30;0.30;;;14.40;90.90;;;;;;5091933;28;20446;-66
2023/01/05 04:19:39;;;;;;;0.50;0.50;;;14.50;90.90;;;;;;5079218;28;20995;-66
2023/01/05 04:22:06;;;;;;;0.60;0.60;;;14.50;90.60;;;;;;5071679;28;20454;-66
2023/01/05 04:24:34;;;;;;;0.40;0.40;;;14.50;90.50;;;;;;5077252;28;20448;-66
2023/01/05 04:27:01;;;;;;;0.40;0.40;;;14.40;90.60;;;;;;5091000;28;20450;-66
2023/01/05 04:29:27;;;;;;;0.53;0.53;;;14.50;90.70;;;;;;5075068;28;20459;-66
2023/01/05 04:31:54;;;;;;;0.50;0.50;;;14.40;90.90;;;;;;5071234;28;20487;-66
2023/01/05 04:34:21;;;;;;;0.40;0.40;;;14.40;90.80;;;;;;5075819;28;20453;-66
2023/01/05 04:36:48;;;;;;;0.43;0.43;;;14.50;90.90;;;;;;5089577;28;20450;-66
2023/01/05 04:39:15;;;;;;;0.40;0.40;;;14.50;90.80;;;;;;5077548;28;20811;-67
2023/01/05 04:41:43;;;;;;;0.40;0.40;;;14.40;90.90;;;;;;5070756;28;20455;-67
2023/01/05 04:44:10;;;;;;;0.97;0.60;;;14.50;91.00;;;;;;5072736;28;20474;-66
2023/01/05 04:46:37;;;;;;;0.53;0.53;;;14.40;90.90;;;;;;5089524;28;20446;-67
2023/01/05 04:49:04;;;;;;;1.00;0.53;;;14.40;91.00;;;;;;5079135;28;20820;-66
2023/01/05 04:51:30;;;;;;;2.17;0.80;;;14.50;91.10;;;;;;5070341;28;20851;-67
2023/01/05 04:53:57;;;;;;;0.70;0.70;;;14.50;91.10;;;;;;5071555;28;20466;-67
2023/01/05 04:56:24;;;;;;;0.40;0.40;;;14.50;91.30;;;;;;5079908;28;20472;-66
2023/01/05 04:58:52;;;;;;;0.87;0.57;;;14.40;91.50;;;;;;5099799;28;20450;-66
2023/01/05 05:01:19;;;;;;;0.60;0.60;;;14.50;91.50;;;;;;5079487;28;20942;-66
2023/01/05 05:03:46;;;;;;;0.63;0.63;;;14.40;91.60;;;;;;5070703;28;20451;-68
2023/01/05 05:06:13;;;;;;;0.70;0.70;;;14.40;91.90;;;;;;5071206;28;20947;-69
2023/01/05 05:08:39;;;;;;;0.70;0.50;;;14.40;91.70;;;;;;5070959;28;20453;-66
2023/01/05 05:11:06;;;;;;;0.60;0.60;;;14.50;91.60;;;;;;5071038;28;20856;-67
2023/01/05 05:13:33;;;;;;;1.00;0.70;;;14.60;91.50;;;;;;5085297;28;20938;-68
2023/01/05 05:16:01;;;;;;;1.40;0.70;;;14.60;91.40;;;;;;5073527;28;20981;-68
2023/01/05 05:18:28;;;;;;;1.73;0.80;;;14.60;91.40;;;;;;5077188;28;20476;-67
2023/01/05 05:20:55;;;;;;;1.00;1.00;;;14.50;91.80;;;;;;5091181;28;20457;-68
2023/01/05 05:23:25;;;;;;;0.90;0.70;;;14.50;92.00;;;;;;5091177;28;20954;-67
2023/01/05 05:25:52;;;;;;;0.83;0.60;;;14.50;92.10;;;;;;5075734;28;20454;-67
2023/01/05 05:28:19;;;;;;;1.30;0.77;;;14.50;92.30;;;;;;5075409;28;20534;-67
2023/01/05 05:30:47;;;;;;;0.93;0.90;;;14.40;92.30;;;;;;5089919;28;20480;-66
2023/01/05 05:33:16;;;;;;;0.67;0.63;;;14.30;92.60;;;;;;5084147;28;20447;-68
2023/01/05 05:35:42;;;;;;;1.97;1.10;;;14.40;92.80;;;;;;5070243;28;20454;-68
2023/01/05 05:38:09;;;;;;;1.40;0.90;;;14.40;92.60;;;;;;5085490;28;20448;-68
2023/01/05 05:40:36;;;;;;;0.97;0.60;;;14.40;92.60;;;;;;5070430;28;20449;-69
2023/01/05 05:43:03;;;;;;;2.70;0.90;;;14.40;92.50;;;;;;5071115;28;20801;-69
2023/01/05 05:45:30;;;;;;;2.37;1.17;;;14.40;92.40;;;;;;5070663;28;20455;-67
2023/01/05 05:47:56;;;;;;;0.80;0.73;;;14.50;92.30;;;;;;5070711;28;20461;-68
2023/01/05 05:50:25;;;;;;;0.53;0.53;;;14.50;92.10;;;;;;5070515;28;20889;-68
2023/01/05 05:52:51;;;;;;;1.93;1.00;;;14.50;92.00;;;;;;5070366;28;20458;-70
2023/01/05 05:55:18;;;;;;;2.57;1.00;;;14.60;91.70;;;;;;5083096;28;20460;-69
2023/01/05 05:57:45;;;;;;;2.50;1.17;;;14.60;91.40;;;;;;5102740;28;20449;-69
2023/01/05 06:00:14;;;;;;;3.13;1.17;;;14.60;91.40;;;;;;5083383;28;20452;-69
2023/01/05 06:02:40;;;;;;;2.37;1.00;;;14.60;91.40;;;;;;5073451;28;20957;-69
2023/01/05 06:05:08;;;;;;;1.83;1.07;;;14.50;91.20;;;;;;5074407;28;20494;-68
2023/01/05 06:07:36;;;;;;;3.57;1.30;;;14.60;91.50;;;;;;5072670;28;20450;-68
2023/01/05 06:10:04;;;;;;;3.37;1.23;;;14.60;91.40;;;;;;5092441;28;20454;-68
2023/01/05 06:12:31;;;;;;;3.30;1.30;;;14.50;90.60;;;;;;5093131;28;20546;-68
2023/01/05 06:14:58;;;;;;;3.43;1.43;;;14.60;90.60;;;;;;5076475;28;20543;-68
2023/01/05 06:17:24;;;;;;;1.93;1.23;;;14.70;90.60;;;;;;5073842;28;20542;-68
2023/01/05 06:19:51;;;;;;;3.57;1.20;;;14.70;90.40;;;;;;5090026;28;20528;-68
2023/01/05 06:22:18;;;;;;;2.00;0.80;;;14.80;90.10;;;;;;5093821;28;20977;-68
2023/01/05 06:24:46;;;;;;;2.90;1.10;;;14.80;90.00;;;;;;5085849;28;20460;-68
2023/01/05 06:27:13;;;;;;;2.43;1.20;;;14.80;89.70;;;;;;5094075;28;20446;-69
2023/01/05 06:29:40;;;;;;;1.77;1.07;;;14.90;89.70;;;;;;5078490;28;20459;-68
2023/01/05 06:32:07;;;;;;;3.57;1.60;;;14.90;89.20;;;;;;5073362;28;21101;-69
2023/01/05 06:34:34;;;;;;;1.97;1.10;;;15.00;88.80;;;;;;5086665;28;20515;-69
2023/01/05 06:37:01;;;;;;;3.20;1.30;;;15.00;88.60;;;;;;5087224;28;20542;-69
2023/01/05 06:39:28;;;;;;;3.23;1.43;;;15.00;88.80;;;;;;5074606;28;20451;-69
2023/01/05 06:41:56;;;;;;;2.17;1.20;;;15.00;88.70;;;;;;5073036;28;20453;-69
2023/01/05 06:44:23;;;;;;;0.80;0.80;;;15.10;88.60;;;;;;5084290;28;20541;-68
2023/01/05 06:46:50;;;;;;;5.03;1.27;;;15.10;88.50;;;;;;5093101;28;20457;-69
2023/01/05 06:49:17;;;;;;;3.47;1.10;;;15.10;89.10;;;;;;5088965;28;20454;-69
2023/01/05 06:51:44;;;;;;;1.43;1.00;;;15.00;89.80;;;;;;5092531;28;20585;-69
2023/01/05 06:54:11;;;;;;;1.20;0.87;;;14.90;90.20;;;;;;5083574;28;20501;-69
2023/01/05 06:56:38;;;;;;;1.27;0.70;;;14.90;90.50;;;;;;5077240;28;20458;-69
2023/01/05 06:59:06;;;;;;;1.40;1.00;;;14.90;90.50;;;;;;5103377;28;20450;-69
2023/01/05 07:01:33;;;;;;;2.47;1.07;;;14.80;90.60;;;;;;5085674;28;20443;-69
2023/01/05 07:04:00;;;;;;;1.13;0.93;;;14.80;90.70;;;;;;5077430;28;20566;-69
2023/01/05 07:06:26;;;;;;;1.00;0.90;;;14.80;90.80;;;;;;5072904;28;20513;-69
2023/01/05 07:08:53;;;;;;;1.60;0.90;;;14.80;90.90;;;;;;5077647;28;20545;-69
2023/01/05 07:11:20;;;;;;;2.73;0.97;;;14.80;90.80;;;;;;5078059;28;20511;-69
2023/01/05 07:13:49;;;;;;;2.27;0.87;;;14.80;90.70;;;;;;5076210;28;20530;-69
2023/01/05 07:16:17;;;;;;;1.50;1.23;;;14.80;90.70;;;;;;5072641;28;20456;-68
2023/01/05 07:18:44;;;;;;;0.90;0.90;;;14.90;91.00;;;;;;5077969;28;20802;-69
2023/01/05 07:21:11;;;;;;;1.03;0.90;;;14.90;90.50;;;;;;5092939;28;20554;-69
2023/01/05 07:23:38;;;;;;;2.13;1.00;;;15.00;90.50;;;;;;5088107;28;20475;-69
2023/01/05 07:26:05;;;;;;;1.30;1.20;;;15.00;90.50;;;;;;5082547;28;20456;-69
2023/01/05 07:28:34;;;;;;;1.40;1.30;;;15.00;90.40;;;;;;5088779;28;20535;-69
2023/01/05 07:31:01;;;;;;;1.83;1.17;;;14.90;90.50;;;;;;5086214;28;20565;-69
2023/01/05 07:33:29;;;;;;;3.27;1.40;;;14.80;90.70;;;;;;5090834;28;20503;-69
2023/01/05 07:36:00;;;;;;;1.60;1.20;;;14.70;90.90;;;;;;5071730;28;20485;-69
2023/01/05 07:38:27;;;;;;;3.67;1.37;;;14.80;90.50;;;;;;5084470;28;20447;-68
2023/01/05 07:40:54;;;;;;;2.60;1.10;;;14.70;89.50;;;;;;5083096;28;20455;-68
2023/01/05 07:43:20;;;;;;;2.87;1.60;;;14.70;89.30;;;;;;5072350;28;20498;-69
2023/01/05 07:45:47;;;;;;;3.27;1.60;;;14.80;88.50;;;;;;5091887;28;20446;-69
2023/01/05 07:48:14;;;;;;;2.33;1.30;;;14.80;87.50;;;;;;5084360;28;20955;-69
2023/01/05 07:50:43;;;;;;;4.57;2.00;;;14.80;86.70;;;;;;5076170;28;20493;-68
2023/01/05 07:53:10;;;;;;;3.43;2.20;;;14.80;85.90;;;;;;5072483;28;20497;-68
2023/01/05 07:55:37;;;;;;;3.13;1.70;;;14.90;85.80;;;;;;5079769;28;20451;-69
2023/01/05 07:58:04;;;;;;;2.90;1.57;;;14.90;84.40;;;;;;5081481;28;20939;-68
2023/01/05 08:00:31;;;;;;;4.57;1.80;;;15.00;84.50;;;;;;5088312;28;20832;-68
2023/01/05 08:02:58;;;;;;;5.87;1.77;;;15.00;83.50;;;;;;5035344;28;20502;-68
2023/01/05 08:05:29;;;;;;;4.03;1.90;;;15.10;82.90;;;;;;5086196;28;20534;-68
2023/01/05 08:07:57;;;;;;;5.37;2.07;;;15.10;82.40;;;;;;5071636;28;20512;-68
2023/01/05 08:10:29;;;;;;;3.57;1.60;;;15.10;81.90;;;;;;5089747;28;20453;-68
2023/01/05 08:15:46;;;;;;;4.77;1.90;;;15.20;80.80;;;;;;5090728;28;20823;-69
2023/01/05 08:18:13;;;;;;;4.37;1.70;;;15.20;80.70;;;;;;5091177;28;20450;-69
2023/01/05 08:20:40;;;;;;;5.20;1.90;;;15.20;80.50;;;;;;5090634;28;20886;-69
2023/01/05 08:23:09;;;;;;;3.50;1.40;;;15.30;80.50;;;;;;5075546;28;20487;-69
2023/01/05 08:25:35;;;;;;;4.57;1.97;;;15.40;82.60;;;;;;5084430;28;20538;-69
2023/01/05 08:28:02;;;;;;;4.53;1.53;;;15.50;83.00;;;;;;5071245;28;20461;-69
2023/01/05 08:30:31;;;;;;;3.97;1.60;;;15.60;83.20;;;;;;5072852;28;20550;-69
2023/01/05 08:32:58;;;;;;;4.27;1.80;;;15.60;82.80;;;;;;5085093;28;20489;-69
2023/01/05 08:35:25;;;;;;;3.57;1.60;;;15.60;82.40;;;;;;5071066;28;20810;-68
2023/01/05 08:37:52;;;;;;;3.10;1.60;;;15.60;82.60;;;;;;5071040;28;20448;-68
2023/01/05 08:40:20;;;;;;;3.23;1.60;;;15.60;82.90;;;;;;5071613;28;20534;-68
2023/01/05 08:42:48;;;;;;;3.27;1.70;;;15.60;82.90;;;;;;5070240;28;20987;-68
2023/01/05 08:45:15;;;;;;;2.63;1.77;;;15.40;82.00;;;;;;5070567;28;20460;-68
2023/01/05 08:47:42;;;;;;;6.90;2.50;;;15.20;81.40;;;;;;5070597;28;20546;-68
2023/01/05 08:50:11;;;;;;;6.27;2.13;;;15.20;81.10;;;;;;5070588;28;20543;-68
2023/01/05 08:52:38;;;;;;;6.83;2.50;;;15.10;81.30;;;;;;5070837;28;20483;-68
2023/01/05 08:55:06;;;;;;;5.40;2.03;;;15.00;80.30;;;;;;5071594;28;20537;-68
2023/01/05 08:57:35;;;;;;;6.00;2.20;;;14.90;80.30;;;;;;5088350;28;20454;-68
2023/01/05 09:00:02;;;;;;;4.87;2.53;;;14.90;79.90;;;;;;5070864;28;20475;-69
2023/01/05 09:02:29;;;;;;;4.73;1.83;;;15.00;79.50;;;;;;5076895;28;20443;-69
2023/01/05 09:04:56;;;;;;;5.67;2.10;;;15.00;79.30;;;;;;5070832;28;20451;-69
2023/01/05 09:07:23;;;;;;;8.30;2.20;;;15.00;79.70;;;;;;5071300;28;20818;-69
2023/01/05 09:09:50;;;;;;;7.70;2.20;;;15.10;78.20;;;;;;5070488;28;20448;-68
2023/01/05 09:12:17;;;;;;;8.33;2.50;;;15.10;77.90;;;;;;5077325;28;20570;-68
2023/01/05 09:14:45;;;;;;;7.33;2.83;;;15.00;77.60;;;;;;5070731;28;20487;-68
2023/01/05 09:17:12;;;;;;;9.30;2.97;;;15.00;77.70;;;;;;5070952;28;20447;-68
2023/01/05 09:19:39;;;;;;;10.60;3.20;;;15.00;77.70;;;;;;5071025;28;20543;-68
2023/01/05 09:22:06;;;;;;;5.57;2.17;;;14.90;77.60;;;;;;5082707;28;20447;-68
2023/01/05 09:24:33;;;;;;;6.23;2.17;;;14.90;77.70;;;;;;5091133;28;20450;-68
2023/01/05 09:27:00;;;;;;;10.80;2.90;;;15.00;77.70;;;;;;5079352;28;20535;-68
2023/01/05 09:29:27;;;;;;;7.47;2.33;;;15.10;77.20;;;;;;5074367;28;20996;-67
2023/01/05 09:31:55;;;;;;;10.30;2.27;;;14.90;76.80;;;;;;5083490;28;20518;-68
2023/01/05 09:34:22;;;;;;;8.37;2.60;;;14.90;77.40;;;;;;5095644;28;20457;-67
2023/01/05 09:36:49;;;;;;;13.00;3.93;;;14.90;76.80;;;;;;5085111;28;20450;-68
2023/01/05 09:39:15;;;;;;;13.00;2.83;;;15.00;77.40;;;;;;5091903;28;20447;-68
2023/01/05 09:41:45;;;;;;;10.07;2.70;;;15.00;76.40;;;;;;5081809;28;20533;-67
2023/01/05 09:44:18;;;;;;;10.80;2.70;;;15.10;76.20;;;;;;5074558;28;21038;-67
2023/01/05 09:46:48;;;;;;;7.40;2.77;;;15.00;76.10;;;;;;5075086;28;20440;-65
2023/01/05 09:49:21;;;;;;;8.57;3.03;;;15.00;76.60;;;;;;5087980;28;20454;-66
2023/01/05 09:51:51;;;;;;;9.40;2.90;;;15.10;76.20;;;;;;5086540;28;20513;-67
2023/01/05 09:54:19;;;;;;;7.40;2.40;;;15.10;75.50;;;;;;5085033;28;20538;-67
2023/01/05 09:56:49;;;;;;;8.97;3.00;;;15.10;75.80;;;;;;5080979;28;20490;-66
2023/01/05 09:59:21;;;;;;;7.37;2.77;;;15.20;75.50;;;;;;5102181;28;20541;-67
2023/01/05 10:01:52;;;;;;;8.53;2.50;;;15.30;75.50;;;;;;5084870;28;20447;-67
2023/01/05 10:04:23;;;;;;;8.77;2.97;;;15.20;74.70;;;;;;5094898;28;20437;-68
2023/01/05 10:06:53;;;;;;;10.97;3.17;;;15.20;74.50;;;;;;5094136;28;20792;-67
2023/01/05 10:09:23;;;;;;;9.97;2.73;;;15.20;74.90;;;;;;5084219;28;20600;-68
2023/01/05 10:14:43;;;;;;;9.40;4.10;;;15.20;74.30;;;;;;5072324;28;20470;-69
2023/01/05 10:17:14;;;;;;;8.47;3.10;;;15.30;74.20;;;;;;5072725;28;20604;-69
2023/01/05 10:19:43;;;;;;;9.87;3.27;;;15.30;74.20;;;;;;5074388;28;20455;-69
2023/01/05 10:22:30;;;;;;;7.87;2.80;;;15.40;74.40;;;;;;5080658;28;20463;-68
2023/01/05 10:25:03;;;;;;;10.67;2.77;;;15.30;73.90;;;;;;5093008;28;20961;-68
2023/01/05 10:27:36;;;;;;;11.30;2.77;;;15.40;73.10;;;;;;5077424;28;20447;-69
2023/01/05 10:30:12;;;;;;;8.60;2.47;;;15.30;73.30;;;;;;5084894;28;20499;-69
2023/01/05 10:32:54;;;;;;;11.73;2.73;;;15.30;73.50;;;;;;5080899;28;20467;-67
2023/01/05 10:35:40;;;;;;;9.13;2.30;;;15.40;73.10;;;;;;5092195;28;20527;-68
2023/01/05 10:38:20;;;;;;;9.13;2.60;;;15.40;73.20;;;;;;5093593;28;20423;-67
2023/01/05 10:40:58;;;;;;;7.13;2.60;;;15.40;73.60;;;;;;5075150;28;20530;-68
2023/01/05 10:44:00;;;;;;;5.40;2.40;;;15.50;73.50;;;;;;5072366;28;20447;-68
2023/01/05 10:46:28;;;;;;;9.93;3.03;;;15.30;73.20;;;;;;5030800;28;20491;-68
2023/01/05 10:48:54;;;;;;;8.90;3.10;;;15.30;73.50;;;;;;5072745;28;20447;-69
2023/01/05 10:51:23;;;;;;;7.60;2.67;;;15.30;73.60;;;;;;5073118;28;20481;-68
2023/01/05 10:53:50;;;;;;;9.30;2.70;;;15.40;73.40;;;;;;5076267;28;20479;-69
2023/01/05 10:56:24;;;;;;;10.93;3.13;;;15.60;73.30;;;;;;5072961;28;20554;-71
2023/01/05 10:59:07;;;;;;;8.40;3.10;;;15.50;72.80;;;;;;5076300;28;20478;-69
2023/01/05 11:01:40;;;;;;;9.03;2.70;;;15.60;72.50;;;;;;5080475;28;20579;-69
2023/01/05 11:04:12;;;;;;;9.70;3.03;;;15.50;72.70;;;;;;5052171;28;20530;-69
2023/01/05 11:06:41;;;;;;;14.63;3.17;;;15.60;72.60;;;;;;5072873;28;20522;-69
2023/01/05 11:09:17;;;;;;;11.87;2.67;;;15.80;72.00;;;;;;5072397;28;20451;-69
2023/01/05 11:11:53;;;;;;;11.73;3.63;;;15.70;71.20;;;;;;5084955;28;20972;-68
2023/01/05 11:14:21;;;;;;;9.57;3.00;;;15.80;71.00;;;;;;5086256;28;20440;-68
2023/01/05 11:16:51;;;;;;;10.00;2.87;;;15.80;70.90;;;;;;5074238;28;20449;-68
2023/01/05 11:19:24;;;;;;;9.23;3.47;;;15.90;70.90;;;;;;5086502;28;20996;-68
2023/01/05 11:21:52;;;;;;;10.10;2.97;;;15.80;70.10;;;;;;5074838;28;20453;-68
2023/01/05 11:24:28;;;;;;;8.90;2.93;;;15.80;70.00;;;;;;5080063;28;20455;-69
2023/01/05 11:26:57;;;;;;;11.77;3.03;;;15.90;70.50;;;;;;5071972;28;20534;-67
2023/01/05 11:29:24;;;;;;;6.60;2.60;;;16.00;70.00;;;;;;5078850;28;20458;-68
2023/01/05 11:31:55;;;;;;;11.00;2.73;;;16.00;70.00;;;;;;5083388;28;20451;-68
2023/01/05 11:34:44;;;;;;;10.20;2.90;;;16.30;69.40;;;;;;5077873;28;20449;-69
2023/01/05 11:37:24;;;;;;;10.57;3.00;;;16.60;68.60;;;;;;5078077;28;20864;-67
2023/01/05 11:39:54;;;;;;;7.63;2.20;;;17.00;68.40;;;;;;5092424;28;20500;-69
2023/01/05 11:42:29;;;;;;;7.93;2.50;;;17.30;66.00;;;;;;5091519;28;20538;-70
2023/01/05 11:44:59;;;;;;;10.47;2.90;;;17.40;66.20;;;;;;5091631;28;20525;-70
2023/01/05 11:47:30;;;;;;;9.77;2.80;;;17.50;66.00;;;;;;5089371;28;20478;-70
2023/01/05 11:50:00;;;;;;;6.43;2.50;;;17.50;64.50;;;;;;5083113;28;20505;-70
2023/01/05 11:52:34;;;;;;;9.57;3.17;;;17.60;63.60;;;;;;5085491;28;20467;-70
2023/01/05 11:55:21;;;;;;;9.90;3.17;;;17.50;63.80;;;;;;5077592;28;20497;-70
2023/01/05 11:57:48;;;;;;;6.40;2.83;;;17.50;64.70;;;;;;5096721;28;20957;-70
2023/01/05 12:00:24;;;;;;;9.33;2.67;;;17.40;64.70;;;;;;5093322;28;20973;-70
2023/01/05 12:03:24;;;;;;;9.53;3.20;;;17.40;64.50;;;;;;5090529;28;20450;-69
2023/01/05 12:05:54;;;;;;;7.37;2.73;;;17.10;64.40;;;;;;5063823;28;20452;-69
2023/01/05 12:08:30;;;;;;;9.40;3.00;;;16.90;65.10;;;;;;5071438;28;20546;-70
2023/01/05 12:11:08;;;;;;;12.17;3.30;;;16.80;65.80;;;;;;5070707;28;20489;-70
2023/01/05 12:14:08;;;;;;;8.50;2.40;;;16.50;66.40;;;;;;5070253;28;20513;-69
2023/01/05 12:16:45;;;;;;;11.23;3.00;;;16.40;66.70;;;;;;5090116;28;20883;-70
2023/01/05 12:19:35;;;;;;;8.50;3.40;;;16.30;66.80;;;;;;5085720;28;20587;-70
2023/01/05 12:22:39;;;;;;;7.70;2.40;;;16.30;67.00;;;;;;5089234;28;20445;-69
2023/01/05 12:25:26;;;;;;;11.33;3.20;;;16.40;67.20;;;;;;5088742;28;20489;-70
2023/01/05 12:28:15;;;;;;;9.47;2.97;;;16.30;67.40;;;;;;5091425;28;20447;-69
2023/01/05 12:30:49;;;;;;;8.93;3.10;;;16.20;67.60;;;;;;5089464;28;20529;-69
2023/01/05 12:33:41;;;;;;;9.93;3.13;;;16.20;67.90;;;;;;5085523;28;20558;-69
2023/01/05 12:36:21;;;;;;;10.83;3.03;;;16.10;68.20;;;;;;5049563;28;20458;-69
2023/01/05 12:39:00;;;;;;;11.47;3.60;;;16.00;68.10;;;;;;5071405;28;20435;-72
2023/01/05 12:42:07;;;;;;;9.80;3.03;;;16.00;68.30;;;;;;5075682;28;20439;-71
2023/01/05 12:45:27;;;;;;;9.53;2.90;;;15.80;68.80;;;;;;5063962;28;20459;-72
2023/01/05 12:47:58;;;;;;;12.33;3.07;;;15.80;69.10;;;;;;5094580;28;20460;-73
2023/01/05 12:50:33;;;;;;;9.63;2.90;;;15.80;68.80;;;;;;5107208;28;20476;-72
2023/01/05 12:53:10;;;;;;;11.60;3.63;;;15.80;69.30;;;;;;5107441;28;20488;-72
2023/01/05 12:55:45;;;;;;;14.13;3.53;;;15.90;69.10;;;;;;5090628;28;20450;-72
2023/01/05 12:58:18;;;;;;;8.37;2.90;;;16.00;68.70;;;;;;5119685;28;20948;-71
2023/01/05 13:00:46;;;;;;;7.23;2.90;;;16.10;68.60;;;;;;5118367;28;20439;-73
2023/01/05 13:03:39;;;;;;;8.00;2.90;;;16.10;68.20;;;;;;5081849;28;20462;-74
2023/01/05 13:06:13;;;;;;;7.73;2.53;;;16.00;67.20;;;;;;5082687;28;20538;-73
2023/01/05 13:08:58;;;;;;;12.30;3.73;;;16.10;66.90;;;;;;5092324;28;20881;-72
2023/01/05 13:11:32;;;;;;;7.10;2.40;;;16.10;67.10;;;;;;5094057;28;20443;-72
2023/01/05 13:14:04;;;;;;;8.43;2.80;;;16.20;66.80;;;;;;5095530;28;20462;-76
2023/01/05 13:16:38;;;;;;;7.20;2.63;;;16.20;66.20;;;;;;5098206;28;20443;-73
2023/01/05 13:19:10;;;;;;;8.53;2.83;;;16.10;66.90;;;;;;5090655;28;20944;-73
2023/01/05 13:21:41;;;;;;;8.07;2.70;;;16.10;66.10;;;;;;5092974;28;20541;-72
2023/01/05 13:24:13;;;;;;;9.90;3.57;;;16.00;66.20;;;;;;5085548;28;20821;-70
2023/01/05 13:26:40;;;;;;;10.27;3.73;;;16.00;66.30;;;;;;5091527;28;20445;-68
2023/01/05 13:29:20;;;;;;;12.43;3.60;;;16.10;66.20;;;;;;5091974;28;20454;-70
2023/01/05 13:32:00;;;;;;;10.73;3.03;;;16.10;66.20;;;;;;5088287;28;20455;-68
2023/01/05 13:35:00;;;;;;;11.50;3.23;;;16.20;65.70;;;;;;5085203;28;20462;-70
2023/01/05 13:37:59;;;;;;;7.50;2.53;;;16.20;66.10;;;;;;5041453;28;20531;-69